createdAt,value
2022-11-19T00:01:30.877Z,8.27
2022-11-19T00:05:32.294Z,8.26
2022-11-19T00:09:33.595Z,8.23
2022-11-19T00:13:35.368Z,8.19
2022-11-19T00:17:36.612Z,8.18
2022-11-19T00:21:37.928Z,8.18
2022-11-19T00:25:39.232Z,8.19
2022-11-19T00:29:40.570Z,8.21
2022-11-19T00:33:42.416Z,8.19
2022-11-19T00:37:43.692Z,8.19
2022-11-19T00:41:44.936Z,8.23
2022-11-19T00:45:46.285Z,8.18
2022-11-19T00:49:47.608Z,8.18
2022-11-19T00:53:49.456Z,8.22
2022-11-19T00:57:50.751Z,8.22
2022-11-19T01:01:52.262Z,8.22
2022-11-19T01:05:53.763Z,8.22
2022-11-19T01:09:55.490Z,8.25
2022-11-19T01:13:57.401Z,8.23
2022-11-19T01:17:58.659Z,8.23
2022-11-19T01:21:59.891Z,8.25
2022-11-19T01:26:01.658Z,8.27
2022-11-19T01:30:04.206Z,8.27
2022-11-19T01:34:05.473Z,8.29
2022-11-19T01:38:07.070Z,8.31
2022-11-19T01:42:38.362Z,8.31
2022-11-19T01:46:39.746Z,8.31
2022-11-19T01:50:52.783Z,8.25
2022-11-19T01:54:55.503Z,8.24
2022-11-19T01:59:02.679Z,8.26
2022-11-19T02:03:04.023Z,8.24
2022-11-19T02:07:06.754Z,8.22
2022-11-19T02:11:14.047Z,8.22
2022-11-19T02:15:21.779Z,8.16
2022-11-19T02:19:52.303Z,8.16
2022-11-19T02:24:21.055Z,8.18
2022-11-19T02:28:25.282Z,8.21
2022-11-19T02:32:34.347Z,8.22
2022-11-19T02:36:42.732Z,8.25
2022-11-19T02:40:48.639Z,8.26
2022-11-19T02:45:01.760Z,8.28
2022-11-19T02:49:04.169Z,8.30
2022-11-19T02:53:05.636Z,8.29
2022-11-19T02:57:09.607Z,8.29
2022-11-19T03:01:29.759Z,8.30
2022-11-19T03:05:33.358Z,8.31
2022-11-19T03:09:37.688Z,8.30
2022-11-19T03:14:05.011Z,8.29
2022-11-19T03:18:10.179Z,8.25
2022-11-19T03:22:11.610Z,8.23
2022-11-19T03:26:33.926Z,8.22
2022-11-19T03:30:36.597Z,8.18
2022-11-19T03:34:39.469Z,8.14
2022-11-19T03:38:43.622Z,8.06
2022-11-19T03:42:47.251Z,8.06
2022-11-19T03:46:52.970Z,8.01
2022-11-19T03:50:56.629Z,7.99
2022-11-19T03:54:57.951Z,8.00
2022-11-19T03:58:59.895Z,7.94
2022-11-19T04:03:01.326Z,7.94
2022-11-19T04:07:32.140Z,7.92
2022-11-19T04:11:33.624Z,7.86
2022-11-19T04:15:35.052Z,7.83
2022-11-19T04:19:37.186Z,7.84
2022-11-19T04:23:38.467Z,7.82
2022-11-19T04:27:39.780Z,7.85
2022-11-19T04:31:41.231Z,7.84
2022-11-19T04:35:44.659Z,7.88
2022-11-19T04:39:45.978Z,7.87
2022-11-19T04:43:47.795Z,7.86
2022-11-19T04:47:49.087Z,7.87
2022-11-19T04:51:50.407Z,7.83
2022-11-19T04:55:51.767Z,7.75
2022-11-19T04:59:53.480Z,7.66
2022-11-19T05:03:54.762Z,7.53
2022-11-19T05:07:56.034Z,7.38
2022-11-19T05:11:57.308Z,7.20
2022-11-19T05:15:58.778Z,7.03
2022-11-19T05:20:00.256Z,6.94
2022-11-19T05:24:01.587Z,6.75
2022-11-19T05:28:02.863Z,6.66
2022-11-19T05:32:04.324Z,6.56
2022-11-19T05:36:06.052Z,6.45
2022-11-19T05:40:08.198Z,6.46
2022-11-19T05:44:09.534Z,6.49
2022-11-19T05:48:11.259Z,6.48
2022-11-19T05:52:12.601Z,6.48
2022-11-19T05:56:13.977Z,6.47
2022-11-19T06:00:16.523Z,6.43
2022-11-19T06:04:17.949Z,6.41
2022-11-19T06:08:19.265Z,6.37
2022-11-19T06:12:20.847Z,6.39
2022-11-19T06:16:22.140Z,6.43
2022-11-19T06:20:23.416Z,6.46
2022-11-19T06:24:24.850Z,6.49
2022-11-19T06:28:26.442Z,6.50
2022-11-19T06:32:27.775Z,6.49
2022-11-19T06:36:32.899Z,6.51
2022-11-19T06:40:38.686Z,6.57
2022-11-19T06:44:40.136Z,6.62
2022-11-19T06:48:41.939Z,6.66
2022-11-19T06:52:43.435Z,6.67
2022-11-19T06:56:44.719Z,6.69
2022-11-19T07:00:47.157Z,6.71
2022-11-19T07:04:48.770Z,6.75
2022-11-19T07:08:50.471Z,6.81
2022-11-19T07:12:51.727Z,6.79
2022-11-19T07:16:53.546Z,6.83
2022-11-19T07:20:54.848Z,6.93
2022-11-19T07:24:56.131Z,6.99
2022-11-19T07:29:04.409Z,7.05
2022-11-19T07:33:06.476Z,7.09
2022-11-19T07:37:07.734Z,7.15
2022-11-19T07:41:28.023Z,7.18
2022-11-19T07:45:29.375Z,7.24
2022-11-19T07:49:30.730Z,7.30
2022-11-19T07:53:32.046Z,7.35
2022-11-19T07:57:33.753Z,7.39
2022-11-19T08:01:35.077Z,7.40
2022-11-19T08:05:38.211Z,7.45
2022-11-19T08:09:39.808Z,7.49
2022-11-19T08:13:41.775Z,7.53
2022-11-19T08:18:01.704Z,7.57
2022-11-19T08:22:03.049Z,7.63
2022-11-19T08:26:06.903Z,7.65
2022-11-19T08:30:08.732Z,7.66
2022-11-19T08:34:10.033Z,7.69
2022-11-19T08:38:11.413Z,7.74
2022-11-19T08:42:31.555Z,7.74
2022-11-19T08:46:32.882Z,7.77
2022-11-19T08:50:34.148Z,7.84
2022-11-19T08:54:35.424Z,7.93
2022-11-19T08:58:37.014Z,8.00
2022-11-19T09:02:38.666Z,8.11
2022-11-19T09:06:40.071Z,8.23
2022-11-19T09:10:41.924Z,8.36
2022-11-19T09:14:43.151Z,8.39
2022-11-19T09:18:44.507Z,8.50
2022-11-19T09:22:47.305Z,8.58
2022-11-19T09:26:52.641Z,8.68
2022-11-19T09:30:55.600Z,8.79
2022-11-19T09:34:56.944Z,8.84
2022-11-19T09:38:58.507Z,8.87
2022-11-19T09:43:01.695Z,8.92
2022-11-19T09:47:21.899Z,8.89
2022-11-19T09:51:29.064Z,8.93
2022-11-19T09:55:32.501Z,8.96
2022-11-19T09:59:37.882Z,9.03
2022-11-19T10:03:40.459Z,9.07
2022-11-19T10:07:44.055Z,9.12
2022-11-19T10:12:08.881Z,9.14
2022-11-19T10:16:16.901Z,9.12
2022-11-19T10:20:43.447Z,9.15
2022-11-19T10:24:50.841Z,9.12
2022-11-19T10:28:56.933Z,9.07
2022-11-19T10:33:03.534Z,9.03
2022-11-19T10:37:10.029Z,9.05
2022-11-19T10:41:11.655Z,9.03
2022-11-19T10:45:16.159Z,9.08
2022-11-19T10:49:18.548Z,9.08
2022-11-19T10:53:25.086Z,9.15
2022-11-19T10:57:29.606Z,9.15
2022-11-19T11:01:38.680Z,9.13
2022-11-19T11:06:06.818Z,9.12
2022-11-19T11:10:24.884Z,9.06
2022-11-19T11:14:44.982Z,9.17
2022-11-19T11:18:48.019Z,9.32
2022-11-19T11:22:50.708Z,9.40
2022-11-19T11:27:12.520Z,9.38
2022-11-19T11:31:27.090Z,9.34
2022-11-19T11:35:30.735Z,9.30
2022-11-19T11:39:35.143Z,9.34
2022-11-19T11:43:39.255Z,9.34
2022-11-19T11:47:41.358Z,9.37
2022-11-19T11:51:43.227Z,9.36
2022-11-19T11:55:45.893Z,9.22
2022-11-19T11:59:48.164Z,9.27
2022-11-19T12:03:55.459Z,9.31
2022-11-19T12:08:04.077Z,9.32
2022-11-19T12:12:44.139Z,9.27
2022-11-19T12:16:54.781Z,9.23
2022-11-19T12:21:01.257Z,9.29
2022-11-19T12:25:12.790Z,9.27
2022-11-19T12:29:17.742Z,9.24
2022-11-19T12:33:20.484Z,9.26
2022-11-19T12:37:25.401Z,9.20
2022-11-19T12:41:50.338Z,9.22
2022-11-19T12:46:03.902Z,9.28
2022-11-19T12:50:24.118Z,9.28
2022-11-19T12:54:33.484Z,9.31
2022-11-19T12:58:51.063Z,9.36
2022-11-19T13:03:11.825Z,9.35
2022-11-19T13:07:23.159Z,9.34
2022-11-19T13:11:36.676Z,9.36
2022-11-19T13:15:42.838Z,9.35
2022-11-19T13:19:46.275Z,9.35
2022-11-19T13:23:48.556Z,9.33
2022-11-19T13:27:52.124Z,9.33
2022-11-19T13:32:01.922Z,9.31
2022-11-19T13:36:09.014Z,9.32
2022-11-19T13:40:19.457Z,9.33
2022-11-19T13:44:41.111Z,9.38
2022-11-19T13:48:48.546Z,9.40
2022-11-19T13:52:57.661Z,9.41
2022-11-19T13:56:59.568Z,9.42
2022-11-19T14:01:07.954Z,9.45
2022-11-19T14:05:23.543Z,9.46
2022-11-19T14:09:43.920Z,9.50
2022-11-19T14:14:03.998Z,9.53
2022-11-19T14:18:42.076Z,9.54
2022-11-19T14:23:11.679Z,9.52
2022-11-19T14:27:19.440Z,9.47
2022-11-19T14:31:21.306Z,9.51
2022-11-19T14:35:25.985Z,9.56
2022-11-19T14:39:29.226Z,9.60
2022-11-19T14:43:49.379Z,9.61
2022-11-19T14:47:50.781Z,9.62
2022-11-19T14:51:56.730Z,9.60
2022-11-19T14:55:59.906Z,9.54
2022-11-19T15:00:07.531Z,9.52
2022-11-19T15:04:12.011Z,9.49
2022-11-19T15:08:16.291Z,9.43
2022-11-19T15:12:21.388Z,9.38
2022-11-19T15:16:25.670Z,9.35
2022-11-19T15:20:26.943Z,9.32
2022-11-19T15:24:35.035Z,9.27
2022-11-19T15:28:36.393Z,9.23
2022-11-19T15:32:43.786Z,9.20
2022-11-19T15:36:47.012Z,9.14
2022-11-19T15:40:50.037Z,9.09
2022-11-19T15:44:59.226Z,9.05
2022-11-19T15:49:13.305Z,8.96
2022-11-19T15:53:17.540Z,8.94
2022-11-19T15:57:19.180Z,8.91
2022-11-19T16:01:21.757Z,8.83
2022-11-19T16:05:23.221Z,8.77
2022-11-19T16:09:25.275Z,8.75
2022-11-19T16:13:45.734Z,8.72
2022-11-19T16:17:47.582Z,8.69
2022-11-19T16:22:03.531Z,8.67
2022-11-19T16:26:04.919Z,8.64
2022-11-19T16:30:06.659Z,8.60
2022-11-19T16:34:12.830Z,8.58
2022-11-19T16:38:16.153Z,8.58
2022-11-19T16:42:19.832Z,8.57
2022-11-19T16:46:22.823Z,8.54
2022-11-19T16:50:24.769Z,8.51
2022-11-19T16:54:45.506Z,8.49
2022-11-19T16:58:47.014Z,8.49
2022-11-19T17:02:49.203Z,8.48
2022-11-19T17:06:50.494Z,8.45
2022-11-19T17:11:30.699Z,8.44
2022-11-19T17:15:34.960Z,8.42
2022-11-19T17:19:36.910Z,8.42
2022-11-19T17:23:46.523Z,8.41
2022-11-19T17:27:58.620Z,8.37
2022-11-19T17:32:03.300Z,8.37
2022-11-19T17:36:12.196Z,8.35
2022-11-19T17:40:13.606Z,8.33
2022-11-19T17:44:40.465Z,8.32
2022-11-19T17:48:42.791Z,8.30
2022-11-19T17:52:44.303Z,8.30
2022-11-19T17:56:45.574Z,8.31
2022-11-19T18:00:47.190Z,8.29
2022-11-19T18:04:48.507Z,8.28
2022-11-19T18:08:49.864Z,8.28
2022-11-19T18:12:51.199Z,8.30
2022-11-19T18:16:52.754Z,8.32
2022-11-19T18:20:58.928Z,8.30
2022-11-19T18:25:10.543Z,8.29
2022-11-19T18:29:12.093Z,8.26
2022-11-19T18:33:13.928Z,8.20
2022-11-19T18:37:15.196Z,8.23
2022-11-19T18:41:18.911Z,8.21
2022-11-19T18:45:20.281Z,8.21
2022-11-19T18:49:21.951Z,8.17
2022-11-19T18:53:23.380Z,8.19
2022-11-19T18:57:24.913Z,8.15
2022-11-19T19:01:26.364Z,8.16
2022-11-19T19:05:28.120Z,8.10
2022-11-19T19:09:29.649Z,8.08
2022-11-19T19:13:31.251Z,8.07
2022-11-19T19:17:32.617Z,8.07
2022-11-19T19:21:34.046Z,8.08
2022-11-19T19:25:35.673Z,8.10
2022-11-19T19:29:37.397Z,8.13
2022-11-19T19:33:39.184Z,8.14
2022-11-19T19:37:42.525Z,8.13
2022-11-19T19:41:43.854Z,8.08
2022-11-19T19:45:45.664Z,8.07
2022-11-19T19:49:49.573Z,8.08
2022-11-19T19:53:52.893Z,8.06
2022-11-19T19:57:57.724Z,8.05
2022-11-19T20:01:59.281Z,8.03
2022-11-19T20:06:01.084Z,8.00
2022-11-19T20:10:03.041Z,8.00
2022-11-19T20:14:04.817Z,8.00
2022-11-19T20:18:06.158Z,8.05
2022-11-19T20:22:07.420Z,8.03
2022-11-19T20:26:16.797Z,8.02
2022-11-19T20:30:18.138Z,8.02
2022-11-19T20:34:19.572Z,8.04
2022-11-19T20:38:21.180Z,8.01
2022-11-19T20:42:41.357Z,7.98
2022-11-19T20:46:42.826Z,7.97
2022-11-19T20:50:44.206Z,7.96
2022-11-19T20:54:45.480Z,8.01
2022-11-19T20:58:46.829Z,7.98
2022-11-19T21:02:48.106Z,7.96
2022-11-19T21:06:51.337Z,7.94
2022-11-19T21:10:59.671Z,7.95
2022-11-19T21:15:04.653Z,7.94
2022-11-19T21:19:06.007Z,7.93
2022-11-19T21:23:07.350Z,7.91
2022-11-19T21:27:09.230Z,7.89
2022-11-19T21:31:13.345Z,7.88
2022-11-19T21:35:15.735Z,7.88
2022-11-19T21:39:18.534Z,7.86
2022-11-19T21:43:20.527Z,7.85
2022-11-19T21:47:21.959Z,7.86
2022-11-19T21:51:25.104Z,7.85
2022-11-19T21:55:26.738Z,7.81
2022-11-19T21:59:28.043Z,7.84
2022-11-19T22:03:32.755Z,7.85
2022-11-19T22:07:34.412Z,7.83
2022-11-19T22:11:35.775Z,7.85
2022-11-19T22:15:37.078Z,7.85
2022-11-19T22:19:38.439Z,7.84
2022-11-19T22:23:41.147Z,7.82
2022-11-19T22:27:42.550Z,7.85
2022-11-19T22:31:43.887Z,7.83
2022-11-19T22:35:45.331Z,7.83
2022-11-19T22:39:47.043Z,7.85
2022-11-19T22:43:49.211Z,7.86
2022-11-19T22:47:50.505Z,7.84
2022-11-19T22:51:52.066Z,7.80
2022-11-19T22:55:53.351Z,7.80
2022-11-19T22:59:54.684Z,7.76
2022-11-19T23:03:56.996Z,7.72
2022-11-19T23:07:58.315Z,7.63
2022-11-19T23:12:32.082Z,7.64
2022-11-19T23:16:33.384Z,7.59
2022-11-19T23:20:34.668Z,7.61
2022-11-19T23:24:36.051Z,7.58
2022-11-19T23:28:38.064Z,7.57
2022-11-19T23:32:40.858Z,7.54
2022-11-19T23:36:42.391Z,7.55
2022-11-19T23:40:44.983Z,7.52
2022-11-19T23:44:46.289Z,7.45
2022-11-19T23:48:48.371Z,7.41
2022-11-19T23:52:49.644Z,7.45
2022-11-19T23:56:50.999Z,7.48
